sensor_id;sensor_type;location;lat;lon;timestamp;P1;durP1;ratioP1;P2;durP2;ratioP2
10335;SDS011;5213;53.548;9.930;2023-04-23T00:00:59;7.15;;;6.57;;
10335;SDS011;5213;53.548;9.930;2023-04-23T00:03:26;8.02;;;7.30;;
10335;SDS011;5213;53.548;9.930;2023-04-23T00:05:53;8.10;;;7.40;;
10335;SDS011;5213;53.548;9.930;2023-04-23T00:08:21;7.50;;;6.82;;
10335;SDS011;5213;53.548;9.930;2023-04-23T00:10:48;8.63;;;7.72;;
10335;SDS011;5213;53.548;9.930;2023-04-23T00:13:14;8.10;;;7.28;;
10335;SDS011;5213;53.548;9.930;2023-04-23T00:15:40;8.82;;;7.80;;
10335;SDS011;5213;53.548;9.930;2023-04-23T00:18:06;7.97;;;7.18;;
10335;SDS011;5213;53.548;9.930;2023-04-23T00:20:32;8.40;;;7.47;;
10335;SDS011;5213;53.548;9.930;2023-04-23T00:22:59;9.18;;;8.27;;
10335;SDS011;5213;53.548;9.930;2023-04-23T00:25:25;8.70;;;7.90;;
10335;SDS011;5213;53.548;9.930;2023-04-23T00:27:51;9.00;;;8.18;;
10335;SDS011;5213;53.548;9.930;2023-04-23T00:30:17;8.63;;;7.82;;
10335;SDS011;5213;53.548;9.930;2023-04-23T00:32:43;9.35;;;8.50;;
10335;SDS011;5213;53.548;9.930;2023-04-23T00:35:09;9.25;;;8.45;;
10335;SDS011;5213;53.548;9.930;2023-04-23T00:37:35;9.25;;;8.45;;
10335;SDS011;5213;53.548;9.930;2023-04-23T00:40:02;9.48;;;8.52;;
10335;SDS011;5213;53.548;9.930;2023-04-23T00:42:28;10.38;;;9.38;;
10335;SDS011;5213;53.548;9.930;2023-04-23T00:44:54;10.32;;;9.32;;
10335;SDS011;5213;53.548;9.930;2023-04-23T00:47:21;11.05;;;9.95;;
10335;SDS011;5213;53.548;9.930;2023-04-23T00:49:47;11.25;;;10.18;;
10335;SDS011;5213;53.548;9.930;2023-04-23T00:52:14;12.43;;;11.32;;
10335;SDS011;5213;53.548;9.930;2023-04-23T00:54:40;12.48;;;11.30;;
10335;SDS011;5213;53.548;9.930;2023-04-23T00:57:07;12.63;;;11.32;;
10335;SDS011;5213;53.548;9.930;2023-04-23T00:59:33;12.07;;;11.00;;
10335;SDS011;5213;53.548;9.930;2023-04-23T01:02:00;12.15;;;11.05;;
10335;SDS011;5213;53.548;9.930;2023-04-23T01:04:26;12.32;;;11.07;;
10335;SDS011;5213;53.548;9.930;2023-04-23T01:06:53;13.02;;;11.70;;
10335;SDS011;5213;53.548;9.930;2023-04-23T01:09:19;13.77;;;12.35;;
10335;SDS011;5213;53.548;9.930;2023-04-23T01:11:46;13.35;;;12.05;;
10335;SDS011;5213;53.548;9.930;2023-04-23T01:14:13;14.15;;;12.75;;
10335;SDS011;5213;53.548;9.930;2023-04-23T01:16:40;14.20;;;12.82;;
10335;SDS011;5213;53.548;9.930;2023-04-23T01:19:06;15.38;;;13.77;;
10335;SDS011;5213;53.548;9.930;2023-04-23T01:21:33;15.00;;;13.40;;
10335;SDS011;5213;53.548;9.930;2023-04-23T01:24:00;14.18;;;12.88;;
10335;SDS011;5213;53.548;9.930;2023-04-23T01:26:26;13.65;;;12.35;;
10335;SDS011;5213;53.548;9.930;2023-04-23T01:28:52;13.75;;;12.35;;
10335;SDS011;5213;53.548;9.930;2023-04-23T01:31:18;15.50;;;12.73;;
10335;SDS011;5213;53.548;9.930;2023-04-23T01:33:45;14.10;;;11.90;;
10335;SDS011;5213;53.548;9.930;2023-04-23T01:36:19;14.50;;;13.10;;
10335;SDS011;5213;53.548;9.930;2023-04-23T01:38:53;14.20;;;12.90;;
10335;SDS011;5213;53.548;9.930;2023-04-23T01:41:19;13.43;;;12.15;;
10335;SDS011;5213;53.548;9.930;2023-04-23T01:43:45;13.15;;;11.85;;
10335;SDS011;5213;53.548;9.930;2023-04-23T01:46:11;13.32;;;12.13;;
10335;SDS011;5213;53.548;9.930;2023-04-23T01:48:37;14.00;;;12.60;;
10335;SDS011;5213;53.548;9.930;2023-04-23T01:51:03;12.30;;;11.18;;
10335;SDS011;5213;53.548;9.930;2023-04-23T01:53:29;10.38;;;9.38;;
10335;SDS011;5213;53.548;9.930;2023-04-23T01:55:56;11.82;;;10.73;;
10335;SDS011;5213;53.548;9.930;2023-04-23T01:58:22;11.38;;;10.27;;
10335;SDS011;5213;53.548;9.930;2023-04-23T02:00:48;12.45;;;11.25;;
10335;SDS011;5213;53.548;9.930;2023-04-23T02:03:15;14.48;;;13.07;;
10335;SDS011;5213;53.548;9.930;2023-04-23T02:05:41;15.48;;;13.95;;
10335;SDS011;5213;53.548;9.930;2023-04-23T02:08:07;16.83;;;15.10;;
10335;SDS011;5213;53.548;9.930;2023-04-23T02:10:33;18.42;;;16.50;;
10335;SDS011;5213;53.548;9.930;2023-04-23T02:13:00;18.92;;;16.98;;
10335;SDS011;5213;53.548;9.930;2023-04-23T02:15:26;21.33;;;18.52;;
10335;SDS011;5213;53.548;9.930;2023-04-23T02:17:52;23.70;;;20.83;;
10335;SDS011;5213;53.548;9.930;2023-04-23T02:20:19;24.52;;;21.90;;
10335;SDS011;5213;53.548;9.930;2023-04-23T02:22:45;29.17;;;25.42;;
10335;SDS011;5213;53.548;9.930;2023-04-23T02:25:12;32.53;;;25.98;;
10335;SDS011;5213;53.548;9.930;2023-04-23T02:27:39;32.97;;;27.45;;
10335;SDS011;5213;53.548;9.930;2023-04-23T02:30:06;34.03;;;27.90;;
10335;SDS011;5213;53.548;9.930;2023-04-23T02:32:33;35.53;;;28.08;;
10335;SDS011;5213;53.548;9.930;2023-04-23T02:35:00;32.85;;;27.70;;
10335;SDS011;5213;53.548;9.930;2023-04-23T02:37:26;34.08;;;27.02;;
10335;SDS011;5213;53.548;9.930;2023-04-23T02:39:52;35.22;;;26.83;;
10335;SDS011;5213;53.548;9.930;2023-04-23T02:42:18;34.03;;;26.02;;
10335;SDS011;5213;53.548;9.930;2023-04-23T02:44:44;28.73;;;24.50;;
10335;SDS011;5213;53.548;9.930;2023-04-23T02:47:11;28.00;;;23.77;;
10335;SDS011;5213;53.548;9.930;2023-04-23T02:49:37;26.17;;;20.92;;
10335;SDS011;5213;53.548;9.930;2023-04-23T02:52:03;25.08;;;21.27;;
10335;SDS011;5213;53.548;9.930;2023-04-23T02:54:29;23.85;;;20.58;;
10335;SDS011;5213;53.548;9.930;2023-04-23T02:56:56;24.00;;;19.73;;
10335;SDS011;5213;53.548;9.930;2023-04-23T02:59:22;23.20;;;19.58;;
10335;SDS011;5213;53.548;9.930;2023-04-23T03:01:48;25.63;;;20.35;;
10335;SDS011;5213;53.548;9.930;2023-04-23T03:04:15;24.75;;;20.40;;
10335;SDS011;5213;53.548;9.930;2023-04-23T03:06:42;23.23;;;19.92;;
10335;SDS011;5213;53.548;9.930;2023-04-23T03:09:08;26.42;;;21.65;;
10335;SDS011;5213;53.548;9.930;2023-04-23T03:11:34;24.73;;;21.08;;
10335;SDS011;5213;53.548;9.930;2023-04-23T03:14:00;23.13;;;18.35;;
10335;SDS011;5213;53.548;9.930;2023-04-23T03:16:27;24.27;;;18.65;;
10335;SDS011;5213;53.548;9.930;2023-04-23T03:18:53;24.33;;;19.50;;
10335;SDS011;5213;53.548;9.930;2023-04-23T03:21:19;24.45;;;21.48;;
10335;SDS011;5213;53.548;9.930;2023-04-23T03:23:45;23.63;;;18.95;;
10335;SDS011;5213;53.548;9.930;2023-04-23T03:26:11;26.75;;;18.73;;
10335;SDS011;5213;53.548;9.930;2023-04-23T03:28:37;21.45;;;16.85;;
10335;SDS011;5213;53.548;9.930;2023-04-23T03:31:03;21.33;;;17.58;;
10335;SDS011;5213;53.548;9.930;2023-04-23T03:33:29;20.15;;;17.15;;
10335;SDS011;5213;53.548;9.930;2023-04-23T03:35:55;18.95;;;16.45;;
10335;SDS011;5213;53.548;9.930;2023-04-23T03:38:22;18.88;;;16.10;;
10335;SDS011;5213;53.548;9.930;2023-04-23T03:40:48;18.50;;;16.55;;
10335;SDS011;5213;53.548;9.930;2023-04-23T03:43:14;18.77;;;16.55;;
10335;SDS011;5213;53.548;9.930;2023-04-23T03:45:40;20.08;;;17.15;;
10335;SDS011;5213;53.548;9.930;2023-04-23T03:48:06;19.55;;;16.75;;
10335;SDS011;5213;53.548;9.930;2023-04-23T03:50:32;18.23;;;16.33;;
10335;SDS011;5213;53.548;9.930;2023-04-23T03:53:02;17.48;;;15.60;;
10335;SDS011;5213;53.548;9.930;2023-04-23T03:55:29;19.15;;;15.35;;
10335;SDS011;5213;53.548;9.930;2023-04-23T03:57:55;17.02;;;15.23;;
10335;SDS011;5213;53.548;9.930;2023-04-23T04:00:21;17.95;;;14.73;;
10335;SDS011;5213;53.548;9.930;2023-04-23T04:02:47;16.73;;;14.50;;
10335;SDS011;5213;53.548;9.930;2023-04-23T04:05:13;16.10;;;14.32;;
10335;SDS011;5213;53.548;9.930;2023-04-23T04:07:39;16.15;;;14.43;;
10335;SDS011;5213;53.548;9.930;2023-04-23T04:10:06;16.00;;;14.32;;
10335;SDS011;5213;53.548;9.930;2023-04-23T04:12:32;15.50;;;13.85;;
10335;SDS011;5213;53.548;9.930;2023-04-23T04:14:58;15.35;;;13.20;;
10335;SDS011;5213;53.548;9.930;2023-04-23T04:17:24;16.92;;;13.32;;
10335;SDS011;5213;53.548;9.930;2023-04-23T04:19:50;13.80;;;11.82;;
10335;SDS011;5213;53.548;9.930;2023-04-23T04:22:16;13.15;;;11.85;;
10335;SDS011;5213;53.548;9.930;2023-04-23T04:24:42;13.73;;;11.85;;
10335;SDS011;5213;53.548;9.930;2023-04-23T04:27:11;17.30;;;11.93;;
10335;SDS011;5213;53.548;9.930;2023-04-23T04:29:37;13.38;;;11.05;;
10335;SDS011;5213;53.548;9.930;2023-04-23T04:32:04;12.63;;;11.02;;
10335;SDS011;5213;53.548;9.930;2023-04-23T04:34:30;11.68;;;9.55;;
10335;SDS011;5213;53.548;9.930;2023-04-23T04:36:57;13.77;;;10.55;;
10335;SDS011;5213;53.548;9.930;2023-04-23T04:39:23;12.20;;;9.70;;
10335;SDS011;5213;53.548;9.930;2023-04-23T04:41:49;11.35;;;8.93;;
10335;SDS011;5213;53.548;9.930;2023-04-23T04:44:16;10.05;;;9.05;;
10335;SDS011;5213;53.548;9.930;2023-04-23T04:46:42;12.02;;;9.40;;
10335;SDS011;5213;53.548;9.930;2023-04-23T04:49:09;10.88;;;8.95;;
10335;SDS011;5213;53.548;9.930;2023-04-23T04:51:36;10.40;;;8.90;;
10335;SDS011;5213;53.548;9.930;2023-04-23T04:54:02;11.48;;;9.20;;
10335;SDS011;5213;53.548;9.930;2023-04-23T04:56:28;12.32;;;9.82;;
10335;SDS011;5213;53.548;9.930;2023-04-23T04:58:54;12.98;;;9.05;;
10335;SDS011;5213;53.548;9.930;2023-04-23T05:01:21;13.90;;;8.27;;
10335;SDS011;5213;53.548;9.930;2023-04-23T05:03:50;8.68;;;7.78;;
10335;SDS011;5213;53.548;9.930;2023-04-23T05:06:17;9.73;;;7.88;;
10335;SDS011;5213;53.548;9.930;2023-04-23T05:08:43;9.48;;;8.27;;
10335;SDS011;5213;53.548;9.930;2023-04-23T05:11:12;8.07;;;7.28;;
10335;SDS011;5213;53.548;9.930;2023-04-23T05:13:39;8.65;;;7.47;;
10335;SDS011;5213;53.548;9.930;2023-04-23T05:16:05;8.55;;;7.50;;
10335;SDS011;5213;53.548;9.930;2023-04-23T05:18:31;7.93;;;7.22;;
10335;SDS011;5213;53.548;9.930;2023-04-23T05:20:57;8.40;;;7.20;;
10335;SDS011;5213;53.548;9.930;2023-04-23T05:23:23;10.13;;;8.38;;
10335;SDS011;5213;53.548;9.930;2023-04-23T05:25:49;8.60;;;7.13;;
10335;SDS011;5213;53.548;9.930;2023-04-23T05:28:17;8.90;;;7.47;;
10335;SDS011;5213;53.548;9.930;2023-04-23T05:30:43;9.65;;;8.20;;
10335;SDS011;5213;53.548;9.930;2023-04-23T05:33:09;10.20;;;7.82;;
10335;SDS011;5213;53.548;9.930;2023-04-23T05:35:36;8.85;;;7.07;;
10335;SDS011;5213;53.548;9.930;2023-04-23T05:38:02;10.27;;;8.30;;
10335;SDS011;5213;53.548;9.930;2023-04-23T05:40:30;9.65;;;8.55;;
10335;SDS011;5213;53.548;9.930;2023-04-23T05:42:59;9.70;;;8.70;;
10335;SDS011;5213;53.548;9.930;2023-04-23T05:45:25;9.02;;;8.23;;
10335;SDS011;5213;53.548;9.930;2023-04-23T05:47:51;10.13;;;8.30;;
10335;SDS011;5213;53.548;9.930;2023-04-23T05:50:18;10.73;;;8.98;;
10335;SDS011;5213;53.548;9.930;2023-04-23T05:52:44;9.82;;;8.82;;
10335;SDS011;5213;53.548;9.930;2023-04-23T05:55:10;10.00;;;8.88;;
10335;SDS011;5213;53.548;9.930;2023-04-23T05:57:36;10.00;;;8.80;;
10335;SDS011;5213;53.548;9.930;2023-04-23T06:00:03;9.60;;;8.57;;
10335;SDS011;5213;53.548;9.930;2023-04-23T06:02:30;11.77;;;8.95;;
10335;SDS011;5213;53.548;9.930;2023-04-23T06:04:57;10.52;;;8.88;;
10335;SDS011;5213;53.548;9.930;2023-04-23T06:07:23;12.13;;;10.10;;
10335;SDS011;5213;53.548;9.930;2023-04-23T06:09:49;10.68;;;8.80;;
10335;SDS011;5213;53.548;9.930;2023-04-23T06:12:16;10.50;;;8.65;;
10335;SDS011;5213;53.548;9.930;2023-04-23T06:14:42;8.82;;;7.93;;
10335;SDS011;5213;53.548;9.930;2023-04-23T06:17:08;11.57;;;7.40;;
10335;SDS011;5213;53.548;9.930;2023-04-23T06:19:35;9.35;;;7.63;;
10335;SDS011;5213;53.548;9.930;2023-04-23T06:22:01;7.40;;;6.28;;
10335;SDS011;5213;53.548;9.930;2023-04-23T06:24:27;8.15;;;6.53;;
10335;SDS011;5213;53.548;9.930;2023-04-23T06:26:53;6.50;;;5.88;;
10335;SDS011;5213;53.548;9.930;2023-04-23T06:29:19;9.93;;;5.70;;
10335;SDS011;5213;53.548;9.930;2023-04-23T06:31:45;6.75;;;5.72;;
10335;SDS011;5213;53.548;9.930;2023-04-23T06:34:11;6.78;;;5.70;;
10335;SDS011;5213;53.548;9.930;2023-04-23T06:36:37;6.25;;;5.47;;
10335;SDS011;5213;53.548;9.930;2023-04-23T06:39:03;6.18;;;4.82;;
10335;SDS011;5213;53.548;9.930;2023-04-23T06:41:29;5.60;;;4.93;;
10335;SDS011;5213;53.548;9.930;2023-04-23T06:43:55;5.93;;;5.10;;
10335;SDS011;5213;53.548;9.930;2023-04-23T06:46:21;6.68;;;4.97;;
10335;SDS011;5213;53.548;9.930;2023-04-23T06:48:47;6.00;;;5.32;;
10335;SDS011;5213;53.548;9.930;2023-04-23T06:51:13;5.68;;;5.13;;
10335;SDS011;5213;53.548;9.930;2023-04-23T06:53:40;6.50;;;5.32;;
10335;SDS011;5213;53.548;9.930;2023-04-23T06:56:07;6.55;;;5.25;;
10335;SDS011;5213;53.548;9.930;2023-04-23T06:58:33;6.50;;;5.38;;
10335;SDS011;5213;53.548;9.930;2023-04-23T07:00:59;7.80;;;5.82;;
10335;SDS011;5213;53.548;9.930;2023-04-23T07:03:28;6.00;;;4.82;;
10335;SDS011;5213;53.548;9.930;2023-04-23T07:05:54;5.78;;;4.88;;
10335;SDS011;5213;53.548;9.930;2023-04-23T07:08:20;5.95;;;4.93;;
10335;SDS011;5213;53.548;9.930;2023-04-23T07:10:46;6.28;;;5.05;;
10335;SDS011;5213;53.548;9.930;2023-04-23T07:13:13;6.15;;;5.63;;
10335;SDS011;5213;53.548;9.930;2023-04-23T07:15:39;6.00;;;5.40;;
10335;SDS011;5213;53.548;9.930;2023-04-23T07:18:05;7.10;;;6.03;;
10335;SDS011;5213;53.548;9.930;2023-04-23T07:20:31;6.85;;;6.05;;
10335;SDS011;5213;53.548;9.930;2023-04-23T07:22:57;6.20;;;5.60;;
10335;SDS011;5213;53.548;9.930;2023-04-23T07:25:24;6.85;;;6.20;;
10335;SDS011;5213;53.548;9.930;2023-04-23T07:27:51;7.07;;;6.38;;
10335;SDS011;5213;53.548;9.930;2023-04-23T07:30:18;6.70;;;6.03;;
10335;SDS011;5213;53.548;9.930;2023-04-23T07:32:44;6.60;;;6.00;;
10335;SDS011;5213;53.548;9.930;2023-04-23T07:35:10;6.55;;;5.95;;
10335;SDS011;5213;53.548;9.930;2023-04-23T07:37:36;7.63;;;6.07;;
10335;SDS011;5213;53.548;9.930;2023-04-23T07:40:02;8.05;;;6.00;;
10335;SDS011;5213;53.548;9.930;2023-04-23T07:42:29;7.30;;;5.55;;
10335;SDS011;5213;53.548;9.930;2023-04-23T07:44:55;6.43;;;5.82;;
10335;SDS011;5213;53.548;9.930;2023-04-23T07:47:22;7.35;;;5.93;;
10335;SDS011;5213;53.548;9.930;2023-04-23T07:49:48;6.40;;;5.75;;
10335;SDS011;5213;53.548;9.930;2023-04-23T07:52:14;6.03;;;5.43;;
10335;SDS011;5213;53.548;9.930;2023-04-23T07:54:40;7.25;;;6.00;;
10335;SDS011;5213;53.548;9.930;2023-04-23T07:57:06;6.10;;;5.35;;
10335;SDS011;5213;53.548;9.930;2023-04-23T07:59:33;6.07;;;4.80;;
10335;SDS011;5213;53.548;9.930;2023-04-23T08:01:59;6.07;;;5.50;;
10335;SDS011;5213;53.548;9.930;2023-04-23T08:04:25;6.45;;;5.60;;
10335;SDS011;5213;53.548;9.930;2023-04-23T08:06:51;6.88;;;5.82;;
10335;SDS011;5213;53.548;9.930;2023-04-23T08:09:17;7.22;;;5.50;;
10335;SDS011;5213;53.548;9.930;2023-04-23T08:11:43;6.10;;;5.50;;
10335;SDS011;5213;53.548;9.930;2023-04-23T08:14:09;7.00;;;5.82;;
10335;SDS011;5213;53.548;9.930;2023-04-23T08:16:35;6.10;;;5.50;;
10335;SDS011;5213;53.548;9.930;2023-04-23T08:19:01;6.60;;;6.00;;
10335;SDS011;5213;53.548;9.930;2023-04-23T08:21:29;6.20;;;5.70;;
10335;SDS011;5213;53.548;9.930;2023-04-23T08:23:55;6.57;;;5.90;;
10335;SDS011;5213;53.548;9.930;2023-04-23T08:26:21;6.88;;;6.20;;
10335;SDS011;5213;53.548;9.930;2023-04-23T08:28:48;6.28;;;5.68;;
10335;SDS011;5213;53.548;9.930;2023-04-23T08:31:14;7.03;;;5.72;;
10335;SDS011;5213;53.548;9.930;2023-04-23T08:33:41;6.88;;;6.18;;
10335;SDS011;5213;53.548;9.930;2023-04-23T08:36:07;6.68;;;6.03;;
10335;SDS011;5213;53.548;9.930;2023-04-23T08:38:33;6.60;;;5.90;;
10335;SDS011;5213;53.548;9.930;2023-04-23T08:40:59;6.38;;;5.78;;
10335;SDS011;5213;53.548;9.930;2023-04-23T08:46:21;6.38;;;5.78;;
10335;SDS011;5213;53.548;9.930;2023-04-23T08:48:47;6.60;;;5.90;;
10335;SDS011;5213;53.548;9.930;2023-04-23T08:51:17;6.88;;;6.15;;
10335;SDS011;5213;53.548;9.930;2023-04-23T08:53:43;5.97;;;5.40;;
10335;SDS011;5213;53.548;9.930;2023-04-23T08:56:11;6.65;;;5.95;;
10335;SDS011;5213;53.548;9.930;2023-04-23T08:58:38;6.20;;;5.70;;
10335;SDS011;5213;53.548;9.930;2023-04-23T09:01:05;6.60;;;6.00;;
10335;SDS011;5213;53.548;9.930;2023-04-23T09:03:32;6.93;;;6.22;;
10335;SDS011;5213;53.548;9.930;2023-04-23T09:05:58;7.10;;;6.50;;
10335;SDS011;5213;53.548;9.930;2023-04-23T09:08:24;7.57;;;6.28;;
10335;SDS011;5213;53.548;9.930;2023-04-23T09:10:50;7.45;;;6.65;;
10335;SDS011;5213;53.548;9.930;2023-04-23T09:13:16;7.60;;;6.68;;
10335;SDS011;5213;53.548;9.930;2023-04-23T09:15:43;7.13;;;6.43;;
10335;SDS011;5213;53.548;9.930;2023-04-23T09:18:09;7.63;;;6.93;;
10335;SDS011;5213;53.548;9.930;2023-04-23T09:20:35;7.45;;;6.75;;
10335;SDS011;5213;53.548;9.930;2023-04-23T09:23:05;7.72;;;6.93;;
10335;SDS011;5213;53.548;9.930;2023-04-23T09:25:32;8.70;;;6.72;;
10335;SDS011;5213;53.548;9.930;2023-04-23T09:27:58;7.97;;;6.78;;
10335;SDS011;5213;53.548;9.930;2023-04-23T09:30:25;8.27;;;7.32;;
10335;SDS011;5213;53.548;9.930;2023-04-23T09:32:52;8.40;;;7.13;;
10335;SDS011;5213;53.548;9.930;2023-04-23T09:35:18;7.53;;;6.80;;
10335;SDS011;5213;53.548;9.930;2023-04-23T09:37:44;6.60;;;5.90;;
10335;SDS011;5213;53.548;9.930;2023-04-23T09:40:12;8.23;;;7.43;;
10335;SDS011;5213;53.548;9.930;2023-04-23T09:42:39;7.63;;;6.78;;
10335;SDS011;5213;53.548;9.930;2023-04-23T09:45:06;7.80;;;7.00;;
10335;SDS011;5213;53.548;9.930;2023-04-23T09:47:33;7.82;;;6.93;;
10335;SDS011;5213;53.548;9.930;2023-04-23T09:49:59;7.95;;;7.25;;
10335;SDS011;5213;53.548;9.930;2023-04-23T09:52:26;8.50;;;7.70;;
10335;SDS011;5213;53.548;9.930;2023-04-23T09:54:55;10.88;;;7.90;;
10335;SDS011;5213;53.548;9.930;2023-04-23T09:57:25;11.65;;;8.70;;
10335;SDS011;5213;53.548;9.930;2023-04-23T09:59:51;9.10;;;8.27;;
10335;SDS011;5213;53.548;9.930;2023-04-23T10:02:17;10.35;;;9.15;;
10335;SDS011;5213;53.548;9.930;2023-04-23T10:04:43;9.88;;;8.88;;
10335;SDS011;5213;53.548;9.930;2023-04-23T10:07:09;9.95;;;8.98;;
10335;SDS011;5213;53.548;9.930;2023-04-23T10:09:39;10.30;;;9.30;;
10335;SDS011;5213;53.548;9.930;2023-04-23T10:12:05;10.90;;;9.82;;
10335;SDS011;5213;53.548;9.930;2023-04-23T10:14:32;11.43;;;10.23;;
10335;SDS011;5213;53.548;9.930;2023-04-23T10:16:58;11.60;;;10.30;;
10335;SDS011;5213;53.548;9.930;2023-04-23T10:19:25;11.80;;;10.65;;
10335;SDS011;5213;53.548;9.930;2023-04-23T10:21:56;11.73;;;10.55;;
10335;SDS011;5213;53.548;9.930;2023-04-23T10:24:25;11.98;;;10.77;;
10335;SDS011;5213;53.548;9.930;2023-04-23T10:26:55;12.38;;;11.18;;
10335;SDS011;5213;53.548;9.930;2023-04-23T10:29:25;12.95;;;11.55;;
10335;SDS011;5213;53.548;9.930;2023-04-23T10:31:53;12.60;;;11.40;;
10335;SDS011;5213;53.548;9.930;2023-04-23T10:34:20;13.18;;;11.77;;
10335;SDS011;5213;53.548;9.930;2023-04-23T10:36:47;12.05;;;10.95;;
10335;SDS011;5213;53.548;9.930;2023-04-23T10:39:14;12.98;;;11.60;;
10335;SDS011;5213;53.548;9.930;2023-04-23T10:41:40;13.02;;;11.68;;
10335;SDS011;5213;53.548;9.930;2023-04-23T10:44:10;12.48;;;10.82;;
10335;SDS011;5213;53.548;9.930;2023-04-23T10:46:37;13.02;;;11.60;;
10335;SDS011;5213;53.548;9.930;2023-04-23T10:49:13;13.07;;;11.55;;
10335;SDS011;5213;53.548;9.930;2023-04-23T10:51:40;13.18;;;11.82;;
10335;SDS011;5213;53.548;9.930;2023-04-23T10:54:07;13.13;;;11.77;;
10335;SDS011;5213;53.548;9.930;2023-04-23T10:56:36;12.93;;;11.73;;
10335;SDS011;5213;53.548;9.930;2023-04-23T10:59:04;13.65;;;12.32;;
10335;SDS011;5213;53.548;9.930;2023-04-23T11:01:30;14.80;;;13.30;;
10335;SDS011;5213;53.548;9.930;2023-04-23T11:03:56;14.73;;;12.30;;
10335;SDS011;5213;53.548;9.930;2023-04-23T11:09:38;13.00;;;11.70;;
10335;SDS011;5213;53.548;9.930;2023-04-23T11:12:05;12.68;;;11.43;;
10335;SDS011;5213;53.548;9.930;2023-04-23T11:17:09;10.70;;;9.73;;
10335;SDS011;5213;53.548;9.930;2023-04-23T11:19:39;10.27;;;9.27;;
10335;SDS011;5213;53.548;9.930;2023-04-23T11:22:06;9.10;;;8.20;;
10335;SDS011;5213;53.548;9.930;2023-04-23T11:24:37;9.30;;;8.50;;
10335;SDS011;5213;53.548;9.930;2023-04-23T11:27:16;8.80;;;8.00;;
10335;SDS011;5213;53.548;9.930;2023-04-23T11:29:43;9.48;;;8.55;;
10335;SDS011;5213;53.548;9.930;2023-04-23T11:32:11;8.48;;;7.65;;
10335;SDS011;5213;53.548;9.930;2023-04-23T11:34:42;9.25;;;8.38;;
10335;SDS011;5213;53.548;9.930;2023-04-23T11:37:09;8.98;;;8.18;;
10335;SDS011;5213;53.548;9.930;2023-04-23T11:39:36;7.07;;;6.38;;
10335;SDS011;5213;53.548;9.930;2023-04-23T11:42:02;9.13;;;8.02;;
10335;SDS011;5213;53.548;9.930;2023-04-23T11:44:30;7.22;;;6.63;;
10335;SDS011;5213;53.548;9.930;2023-04-23T11:46:59;7.25;;;6.65;;
10335;SDS011;5213;53.548;9.930;2023-04-23T11:49:26;9.10;;;7.07;;
10335;SDS011;5213;53.548;9.930;2023-04-23T11:51:52;7.60;;;6.90;;
10335;SDS011;5213;53.548;9.930;2023-04-23T11:54:18;7.32;;;6.63;;
10335;SDS011;5213;53.548;9.930;2023-04-23T11:56:51;7.00;;;6.40;;
10335;SDS011;5213;53.548;9.930;2023-04-23T11:59:17;8.23;;;7.30;;
10335;SDS011;5213;53.548;9.930;2023-04-23T12:01:44;9.10;;;6.88;;
10335;SDS011;5213;53.548;9.930;2023-04-23T12:06:37;6.45;;;5.85;;
10335;SDS011;5213;53.548;9.930;2023-04-23T12:09:03;7.28;;;6.00;;
10335;SDS011;5213;53.548;9.930;2023-04-23T12:11:29;8.80;;;6.85;;
10335;SDS011;5213;53.548;9.930;2023-04-23T12:13:56;6.65;;;6.05;;
10335;SDS011;5213;53.548;9.930;2023-04-23T12:19:00;7.20;;;6.55;;
10335;SDS011;5213;53.548;9.930;2023-04-23T12:21:26;6.88;;;6.20;;
10335;SDS011;5213;53.548;9.930;2023-04-23T12:23:55;6.47;;;5.88;;
10335;SDS011;5213;53.548;9.930;2023-04-23T12:26:23;6.63;;;5.82;;
10335;SDS011;5213;53.548;9.930;2023-04-23T12:28:53;7.07;;;6.47;;
10335;SDS011;5213;53.548;9.930;2023-04-23T12:31:21;6.40;;;5.90;;
10335;SDS011;5213;53.548;9.930;2023-04-23T12:33:52;5.45;;;4.95;;
10335;SDS011;5213;53.548;9.930;2023-04-23T12:36:18;5.32;;;4.85;;
10335;SDS011;5213;53.548;9.930;2023-04-23T12:38:44;5.75;;;4.97;;
10335;SDS011;5213;53.548;9.930;2023-04-23T12:41:10;5.18;;;4.68;;
10335;SDS011;5213;53.548;9.930;2023-04-23T12:43:36;5.22;;;4.72;;
10335;SDS011;5213;53.548;9.930;2023-04-23T12:46:02;4.40;;;4.00;;
10335;SDS011;5213;53.548;9.930;2023-04-23T12:48:28;4.85;;;3.92;;
10335;SDS011;5213;53.548;9.930;2023-04-23T12:50:54;5.38;;;4.20;;
10335;SDS011;5213;53.548;9.930;2023-04-23T12:53:21;4.78;;;4.38;;
10335;SDS011;5213;53.548;9.930;2023-04-23T12:55:46;4.30;;;3.90;;
10335;SDS011;5213;53.548;9.930;2023-04-23T12:58:14;4.45;;;3.83;;
10335;SDS011;5213;53.548;9.930;2023-04-23T13:00:40;4.20;;;3.80;;
10335;SDS011;5213;53.548;9.930;2023-04-23T13:03:06;4.25;;;3.83;;
10335;SDS011;5213;53.548;9.930;2023-04-23T13:05:32;3.70;;;3.40;;
10335;SDS011;5213;53.548;9.930;2023-04-23T13:07:58;3.80;;;3.50;;
10335;SDS011;5213;53.548;9.930;2023-04-23T13:10:24;4.43;;;3.50;;
10335;SDS011;5213;53.548;9.930;2023-04-23T13:12:50;3.65;;;3.35;;
10335;SDS011;5213;53.548;9.930;2023-04-23T13:15:16;3.88;;;3.40;;
10335;SDS011;5213;53.548;9.930;2023-04-23T13:17:44;4.32;;;3.92;;
10335;SDS011;5213;53.548;9.930;2023-04-23T13:20:10;4.30;;;3.90;;
10335;SDS011;5213;53.548;9.930;2023-04-23T13:22:36;4.10;;;3.70;;
10335;SDS011;5213;53.548;9.930;2023-04-23T13:25:02;3.90;;;3.60;;
10335;SDS011;5213;53.548;9.930;2023-04-23T13:27:28;4.20;;;3.80;;
10335;SDS011;5213;53.548;9.930;2023-04-23T13:29:55;5.47;;;3.97;;
10335;SDS011;5213;53.548;9.930;2023-04-23T13:32:21;3.75;;;3.45;;
10335;SDS011;5213;53.548;9.930;2023-04-23T13:34:52;3.90;;;3.60;;
10335;SDS011;5213;53.548;9.930;2023-04-23T13:37:18;3.95;;;3.60;;
10335;SDS011;5213;53.548;9.930;2023-04-23T13:39:44;5.38;;;3.20;;
10335;SDS011;5213;53.548;9.930;2023-04-23T13:42:10;4.00;;;3.70;;
10335;SDS011;5213;53.548;9.930;2023-04-23T13:44:36;4.03;;;3.28;;
10335;SDS011;5213;53.548;9.930;2023-04-23T13:47:02;3.35;;;3.15;;
10335;SDS011;5213;53.548;9.930;2023-04-23T13:49:28;4.00;;;3.70;;
10335;SDS011;5213;53.548;9.930;2023-04-23T13:51:54;4.20;;;3.83;;
10335;SDS011;5213;53.548;9.930;2023-04-23T13:54:24;4.85;;;3.83;;
10335;SDS011;5213;53.548;9.930;2023-04-23T13:56:52;4.85;;;4.00;;
10335;SDS011;5213;53.548;9.930;2023-04-23T13:59:18;4.47;;;4.07;;
10335;SDS011;5213;53.548;9.930;2023-04-23T14:01:44;4.55;;;4.15;;
10335;SDS011;5213;53.548;9.930;2023-04-23T14:04:13;4.05;;;3.65;;
10335;SDS011;5213;53.548;9.930;2023-04-23T14:06:40;4.28;;;3.50;;
10335;SDS011;5213;53.548;9.930;2023-04-23T14:09:07;3.88;;;3.55;;
10335;SDS011;5213;53.548;9.930;2023-04-23T14:11:33;3.45;;;3.15;;
10335;SDS011;5213;53.548;9.930;2023-04-23T14:13:59;3.60;;;3.10;;
10335;SDS011;5213;53.548;9.930;2023-04-23T14:16:25;4.28;;;3.38;;
10335;SDS011;5213;53.548;9.930;2023-04-23T14:18:52;3.88;;;3.55;;
10335;SDS011;5213;53.548;9.930;2023-04-23T14:21:18;3.40;;;3.10;;
10335;SDS011;5213;53.548;9.930;2023-04-23T14:28:52;6.88;;;4.93;;
10335;SDS011;5213;53.548;9.930;2023-04-23T14:31:21;8.55;;;5.85;;
10335;SDS011;5213;53.548;9.930;2023-04-23T14:33:47;9.98;;;6.20;;
10335;SDS011;5213;53.548;9.930;2023-04-23T14:36:13;8.82;;;6.95;;
10335;SDS011;5213;53.548;9.930;2023-04-23T14:38:39;9.98;;;7.20;;
10335;SDS011;5213;53.548;9.930;2023-04-23T14:41:05;7.72;;;6.32;;
10335;SDS011;5213;53.548;9.930;2023-04-23T14:43:31;8.90;;;5.53;;
10335;SDS011;5213;53.548;9.930;2023-04-23T14:45:58;5.60;;;4.80;;
10335;SDS011;5213;53.548;9.930;2023-04-23T14:48:24;5.68;;;4.80;;
10335;SDS011;5213;53.548;9.930;2023-04-23T14:50:50;5.28;;;4.78;;
10335;SDS011;5213;53.548;9.930;2023-04-23T14:53:16;8.65;;;5.15;;
10335;SDS011;5213;53.548;9.930;2023-04-23T14:55:42;6.60;;;5.28;;
10335;SDS011;5213;53.548;9.930;2023-04-23T14:58:08;6.78;;;5.22;;
10335;SDS011;5213;53.548;9.930;2023-04-23T15:00:34;7.38;;;5.00;;
10335;SDS011;5213;53.548;9.930;2023-04-23T15:03:00;6.07;;;5.00;;
10335;SDS011;5213;53.548;9.930;2023-04-23T15:05:30;4.68;;;3.97;;